sensor_id;sensor_type;location;lat;lon;timestamp;P1;durP1;ratioP1;P2;durP2;ratioP2
11222;SDS011;5668;52.012;8.724;2022-07-24T00:00:16;3.10;;;2.20;;
11222;SDS011;5668;52.012;8.724;2022-07-24T00:02:44;2.42;;;2.22;;
11222;SDS011;5668;52.012;8.724;2022-07-24T00:05:11;2.65;;;2.45;;
11222;SDS011;5668;52.012;8.724;2022-07-24T00:07:38;3.47;;;2.30;;
11222;SDS011;5668;52.012;8.724;2022-07-24T00:10:08;3.00;;;2.80;;
11222;SDS011;5668;52.012;8.724;2022-07-24T00:12:36;3.50;;;2.30;;
11222;SDS011;5668;52.012;8.724;2022-07-24T00:15:05;4.47;;;2.38;;
11222;SDS011;5668;52.012;8.724;2022-07-24T00:17:33;3.17;;;2.50;;
11222;SDS011;5668;52.012;8.724;2022-07-24T00:20:00;2.88;;;2.38;;
11222;SDS011;5668;52.012;8.724;2022-07-24T00:22:28;2.83;;;2.47;;
11222;SDS011;5668;52.012;8.724;2022-07-24T00:24:55;3.38;;;2.85;;
11222;SDS011;5668;52.012;8.724;2022-07-24T00:27:24;2.60;;;2.40;;
11222;SDS011;5668;52.012;8.724;2022-07-24T00:29:51;2.50;;;2.30;;
11222;SDS011;5668;52.012;8.724;2022-07-24T00:32:18;4.40;;;2.17;;
11222;SDS011;5668;52.012;8.724;2022-07-24T00:34:46;2.80;;;2.00;;
11222;SDS011;5668;52.012;8.724;2022-07-24T00:37:13;2.10;;;2.00;;
11222;SDS011;5668;52.012;8.724;2022-07-24T00:39:40;2.40;;;2.20;;
11222;SDS011;5668;52.012;8.724;2022-07-24T00:42:07;2.60;;;2.40;;
11222;SDS011;5668;52.012;8.724;2022-07-24T00:44:36;4.07;;;2.42;;
11222;SDS011;5668;52.012;8.724;2022-07-24T00:47:04;2.50;;;2.30;;
11222;SDS011;5668;52.012;8.724;2022-07-24T00:49:31;2.30;;;2.03;;
11222;SDS011;5668;52.012;8.724;2022-07-24T00:51:58;2.42;;;2.13;;
11222;SDS011;5668;52.012;8.724;2022-07-24T00:54:25;2.83;;;2.42;;
11222;SDS011;5668;52.012;8.724;2022-07-24T00:56:53;2.35;;;2.15;;
11222;SDS011;5668;52.012;8.724;2022-07-24T00:59:20;2.47;;;2.28;;
11222;SDS011;5668;52.012;8.724;2022-07-24T01:01:50;2.30;;;2.10;;
11222;SDS011;5668;52.012;8.724;2022-07-24T01:04:18;2.15;;;1.95;;
11222;SDS011;5668;52.012;8.724;2022-07-24T01:06:45;2.60;;;2.40;;
11222;SDS011;5668;52.012;8.724;2022-07-24T01:09:13;1.95;;;1.80;;
11222;SDS011;5668;52.012;8.724;2022-07-24T01:11:41;3.22;;;2.10;;
11222;SDS011;5668;52.012;8.724;2022-07-24T01:14:09;2.38;;;1.92;;
11222;SDS011;5668;52.012;8.724;2022-07-24T01:16:37;2.30;;;2.10;;
11222;SDS011;5668;52.012;8.724;2022-07-24T01:19:05;2.00;;;1.90;;
11222;SDS011;5668;52.012;8.724;2022-07-24T01:21:34;2.30;;;1.83;;
11222;SDS011;5668;52.012;8.724;2022-07-24T01:24:01;2.17;;;1.83;;
11222;SDS011;5668;52.012;8.724;2022-07-24T01:26:29;2.10;;;1.90;;
11222;SDS011;5668;52.012;8.724;2022-07-24T01:28:57;2.20;;;2.00;;
11222;SDS011;5668;52.012;8.724;2022-07-24T01:31:24;2.30;;;2.05;;
11222;SDS011;5668;52.012;8.724;2022-07-24T01:33:51;3.10;;;2.20;;
11222;SDS011;5668;52.012;8.724;2022-07-24T01:36:18;3.80;;;2.47;;
11222;SDS011;5668;52.012;8.724;2022-07-24T01:38:47;2.30;;;2.10;;
11222;SDS011;5668;52.012;8.724;2022-07-24T01:41:14;2.10;;;1.90;;
11222;SDS011;5668;52.012;8.724;2022-07-24T01:43:41;2.30;;;2.10;;
11222;SDS011;5668;52.012;8.724;2022-07-24T01:46:09;2.58;;;2.08;;
11222;SDS011;5668;52.012;8.724;2022-07-24T01:48:36;2.22;;;2.03;;
11222;SDS011;5668;52.012;8.724;2022-07-24T01:51:04;2.38;;;1.92;;
11222;SDS011;5668;52.012;8.724;2022-07-24T01:53:31;2.65;;;2.10;;
11222;SDS011;5668;52.012;8.724;2022-07-24T01:56:00;2.10;;;2.00;;
11222;SDS011;5668;52.012;8.724;2022-07-24T01:58:28;2.45;;;2.10;;
11222;SDS011;5668;52.012;8.724;2022-07-24T02:00:55;3.17;;;1.90;;
11222;SDS011;5668;52.012;8.724;2022-07-24T02:03:22;2.50;;;1.90;;
11222;SDS011;5668;52.012;8.724;2022-07-24T02:05:50;2.13;;;1.92;;
11222;SDS011;5668;52.012;8.724;2022-07-24T02:08:17;2.72;;;1.92;;
11222;SDS011;5668;52.012;8.724;2022-07-24T02:10:44;2.65;;;1.98;;
11222;SDS011;5668;52.012;8.724;2022-07-24T02:13:13;2.10;;;1.67;;
11222;SDS011;5668;52.012;8.724;2022-07-24T02:15:40;3.00;;;2.20;;
11222;SDS011;5668;52.012;8.724;2022-07-24T02:18:07;4.28;;;2.60;;
11222;SDS011;5668;52.012;8.724;2022-07-24T02:20:34;2.42;;;2.10;;
11222;SDS011;5668;52.012;8.724;2022-07-24T02:23:02;4.82;;;2.10;;
11222;SDS011;5668;52.012;8.724;2022-07-24T02:25:29;1.90;;;1.80;;
11222;SDS011;5668;52.012;8.724;2022-07-24T02:27:56;2.35;;;2.15;;
11222;SDS011;5668;52.012;8.724;2022-07-24T02:30:25;2.60;;;1.90;;
11222;SDS011;5668;52.012;8.724;2022-07-24T02:32:52;2.28;;;2.08;;
11222;SDS011;5668;52.012;8.724;2022-07-24T02:35:20;3.67;;;1.95;;
11222;SDS011;5668;52.012;8.724;2022-07-24T02:37:47;2.13;;;1.80;;
11222;SDS011;5668;52.012;8.724;2022-07-24T02:40:14;1.92;;;1.80;;
11222;SDS011;5668;52.012;8.724;2022-07-24T02:42:42;2.00;;;1.90;;
11222;SDS011;5668;52.012;8.724;2022-07-24T02:45:10;2.17;;;1.98;;
11222;SDS011;5668;52.012;8.724;2022-07-24T02:47:46;2.40;;;2.20;;
11222;SDS011;5668;52.012;8.724;2022-07-24T02:50:15;2.72;;;1.92;;
11222;SDS011;5668;52.012;8.724;2022-07-24T02:52:44;3.20;;;2.63;;
11222;SDS011;5668;52.012;8.724;2022-07-24T02:55:12;3.28;;;2.78;;
11222;SDS011;5668;52.012;8.724;2022-07-24T02:57:39;2.90;;;2.65;;
11222;SDS011;5668;52.012;8.724;2022-07-24T03:02:43;2.50;;;2.30;;
11222;SDS011;5668;52.012;8.724;2022-07-24T03:05:11;2.42;;;2.22;;
11222;SDS011;5668;52.012;8.724;2022-07-24T03:07:39;3.47;;;2.72;;
11222;SDS011;5668;52.012;8.724;2022-07-24T03:10:08;2.67;;;2.47;;
11222;SDS011;5668;52.012;8.724;2022-07-24T03:12:37;2.42;;;2.22;;
11222;SDS011;5668;52.012;8.724;2022-07-24T03:15:05;2.78;;;2.50;;
11222;SDS011;5668;52.012;8.724;2022-07-24T03:17:33;2.45;;;2.25;;
11222;SDS011;5668;52.012;8.724;2022-07-24T03:20:02;2.65;;;2.42;;
11222;SDS011;5668;52.012;8.724;2022-07-24T03:22:32;3.17;;;2.40;;
11222;SDS011;5668;52.012;8.724;2022-07-24T03:24:59;4.20;;;2.75;;
11222;SDS011;5668;52.012;8.724;2022-07-24T03:27:27;3.22;;;2.30;;
11222;SDS011;5668;52.012;8.724;2022-07-24T03:29:54;2.65;;;2.45;;
11222;SDS011;5668;52.012;8.724;2022-07-24T03:32:21;3.10;;;2.50;;
11222;SDS011;5668;52.012;8.724;2022-07-24T03:34:48;3.13;;;2.40;;
11222;SDS011;5668;52.012;8.724;2022-07-24T03:37:17;2.75;;;2.42;;
11222;SDS011;5668;52.012;8.724;2022-07-24T03:39:44;2.65;;;2.45;;
11222;SDS011;5668;52.012;8.724;2022-07-24T03:42:11;2.72;;;2.53;;
11222;SDS011;5668;52.012;8.724;2022-07-24T03:44:39;2.85;;;2.30;;
11222;SDS011;5668;52.012;8.724;2022-07-24T03:47:07;2.40;;;2.20;;
11222;SDS011;5668;52.012;8.724;2022-07-24T03:49:34;2.22;;;2.03;;
11222;SDS011;5668;52.012;8.724;2022-07-24T03:52:01;2.72;;;2.53;;
11222;SDS011;5668;52.012;8.724;2022-07-24T03:54:30;2.90;;;2.60;;
11222;SDS011;5668;52.012;8.724;2022-07-24T03:56:58;2.83;;;2.53;;
11222;SDS011;5668;52.012;8.724;2022-07-24T03:59:25;3.13;;;2.83;;
11222;SDS011;5668;52.012;8.724;2022-07-24T04:01:52;3.00;;;2.80;;
11222;SDS011;5668;52.012;8.724;2022-07-24T04:04:20;2.28;;;2.08;;
11222;SDS011;5668;52.012;8.724;2022-07-24T04:06:47;3.38;;;2.42;;
11222;SDS011;5668;52.012;8.724;2022-07-24T04:09:14;3.95;;;2.30;;
11222;SDS011;5668;52.012;8.724;2022-07-24T04:11:43;3.03;;;2.72;;
11222;SDS011;5668;52.012;8.724;2022-07-24T04:14:11;2.60;;;2.40;;
11222;SDS011;5668;52.012;8.724;2022-07-24T04:16:39;2.78;;;2.47;;
11222;SDS011;5668;52.012;8.724;2022-07-24T04:19:06;2.40;;;2.20;;
11222;SDS011;5668;52.012;8.724;2022-07-24T04:21:33;3.92;;;2.58;;
11222;SDS011;5668;52.012;8.724;2022-07-24T04:24:01;3.13;;;2.75;;
11222;SDS011;5668;52.012;8.724;2022-07-24T04:26:28;2.80;;;2.53;;
11222;SDS011;5668;52.012;8.724;2022-07-24T04:28:57;2.70;;;2.40;;
11222;SDS011;5668;52.012;8.724;2022-07-24T04:31:24;2.88;;;2.60;;
11222;SDS011;5668;52.012;8.724;2022-07-24T04:33:51;2.60;;;2.40;;
11222;SDS011;5668;52.012;8.724;2022-07-24T04:36:19;2.45;;;2.25;;
11222;SDS011;5668;52.012;8.724;2022-07-24T04:38:46;3.58;;;2.50;;
11222;SDS011;5668;52.012;8.724;2022-07-24T04:41:13;2.60;;;2.40;;
11222;SDS011;5668;52.012;8.724;2022-07-24T04:43:42;2.97;;;2.70;;
11222;SDS011;5668;52.012;8.724;2022-07-24T04:46:11;4.55;;;2.67;;
11222;SDS011;5668;52.012;8.724;2022-07-24T04:48:38;3.13;;;2.33;;
11222;SDS011;5668;52.012;8.724;2022-07-24T04:51:05;5.22;;;2.90;;
11222;SDS011;5668;52.012;8.724;2022-07-24T04:53:33;4.40;;;2.83;;
11222;SDS011;5668;52.012;8.724;2022-07-24T04:56:00;3.13;;;2.67;;
11222;SDS011;5668;52.012;8.724;2022-07-24T04:58:27;3.38;;;3.08;;
11222;SDS011;5668;52.012;8.724;2022-07-24T05:00:55;3.75;;;2.60;;
11222;SDS011;5668;52.012;8.724;2022-07-24T05:03:23;2.80;;;2.60;;
11222;SDS011;5668;52.012;8.724;2022-07-24T05:05:51;3.53;;;2.50;;
11222;SDS011;5668;52.012;8.724;2022-07-24T05:08:18;5.53;;;2.70;;
11222;SDS011;5668;52.012;8.724;2022-07-24T05:10:45;3.97;;;2.80;;
11222;SDS011;5668;52.012;8.724;2022-07-24T05:13:12;3.00;;;2.70;;
11222;SDS011;5668;52.012;8.724;2022-07-24T05:15:40;4.18;;;2.45;;
11222;SDS011;5668;52.012;8.724;2022-07-24T05:18:08;3.40;;;2.60;;
11222;SDS011;5668;52.012;8.724;2022-07-24T05:20:36;2.80;;;2.60;;
11222;SDS011;5668;52.012;8.724;2022-07-24T05:23:03;4.13;;;2.53;;
11222;SDS011;5668;52.012;8.724;2022-07-24T05:25:31;3.88;;;2.50;;
11222;SDS011;5668;52.012;8.724;2022-07-24T05:27:58;3.08;;;2.50;;
11222;SDS011;5668;52.012;8.724;2022-07-24T05:30:25;2.60;;;2.40;;
11222;SDS011;5668;52.012;8.724;2022-07-24T05:32:53;3.08;;;2.60;;
11222;SDS011;5668;52.012;8.724;2022-07-24T05:35:20;3.20;;;2.60;;
11222;SDS011;5668;52.012;8.724;2022-07-24T05:37:49;3.08;;;2.50;;
11222;SDS011;5668;52.012;8.724;2022-07-24T05:40:16;2.80;;;2.60;;
11222;SDS011;5668;52.012;8.724;2022-07-24T05:42:44;3.67;;;3.10;;
11222;SDS011;5668;52.012;8.724;2022-07-24T05:45:12;2.97;;;2.70;;
11222;SDS011;5668;52.012;8.724;2022-07-24T05:47:39;3.00;;;2.58;;
11222;SDS011;5668;52.012;8.724;2022-07-24T05:50:08;2.90;;;2.17;;
11222;SDS011;5668;52.012;8.724;2022-07-24T05:52:38;2.90;;;2.60;;
11222;SDS011;5668;52.012;8.724;2022-07-24T05:55:08;4.05;;;2.60;;
11222;SDS011;5668;52.012;8.724;2022-07-24T05:57:35;4.03;;;2.90;;
11222;SDS011;5668;52.012;8.724;2022-07-24T06:00:03;2.80;;;2.60;;
11222;SDS011;5668;52.012;8.724;2022-07-24T06:02:31;3.85;;;2.40;;
11222;SDS011;5668;52.012;8.724;2022-07-24T06:04:58;3.13;;;2.67;;
11222;SDS011;5668;52.012;8.724;2022-07-24T06:07:25;3.75;;;2.50;;
11222;SDS011;5668;52.012;8.724;2022-07-24T06:09:53;2.33;;;2.13;;
11222;SDS011;5668;52.012;8.724;2022-07-24T06:12:21;3.00;;;2.70;;
11222;SDS011;5668;52.012;8.724;2022-07-24T06:14:49;3.75;;;2.90;;
11222;SDS011;5668;52.012;8.724;2022-07-24T06:17:16;3.25;;;2.70;;
11222;SDS011;5668;52.012;8.724;2022-07-24T06:19:43;3.83;;;2.63;;
11222;SDS011;5668;52.012;8.724;2022-07-24T06:22:10;3.63;;;2.45;;
11222;SDS011;5668;52.012;8.724;2022-07-24T06:24:38;3.03;;;2.40;;
11222;SDS011;5668;52.012;8.724;2022-07-24T06:27:05;3.33;;;2.50;;
11222;SDS011;5668;52.012;8.724;2022-07-24T06:29:33;4.07;;;2.70;;
11222;SDS011;5668;52.012;8.724;2022-07-24T06:32:01;2.60;;;2.40;;
11222;SDS011;5668;52.012;8.724;2022-07-24T06:34:28;2.58;;;2.30;;
11222;SDS011;5668;52.012;8.724;2022-07-24T06:36:55;2.28;;;2.00;;
11222;SDS011;5668;52.012;8.724;2022-07-24T06:39:23;2.47;;;2.28;;
11222;SDS011;5668;52.012;8.724;2022-07-24T06:41:50;2.40;;;2.20;;
11222;SDS011;5668;52.012;8.724;2022-07-24T06:44:17;2.88;;;2.40;;
11222;SDS011;5668;52.012;8.724;2022-07-24T06:46:46;3.10;;;2.20;;
11222;SDS011;5668;52.012;8.724;2022-07-24T06:49:13;3.95;;;2.42;;
11222;SDS011;5668;52.012;8.724;2022-07-24T06:51:40;2.33;;;2.20;;
11222;SDS011;5668;52.012;8.724;2022-07-24T06:54:08;3.15;;;2.45;;
11222;SDS011;5668;52.012;8.724;2022-07-24T06:56:35;2.60;;;2.40;;
11222;SDS011;5668;52.012;8.724;2022-07-24T06:59:03;2.97;;;2.40;;
11222;SDS011;5668;52.012;8.724;2022-07-24T07:01:30;3.47;;;2.30;;
11222;SDS011;5668;52.012;8.724;2022-07-24T07:03:59;2.67;;;2.22;;
11222;SDS011;5668;52.012;8.724;2022-07-24T07:06:26;2.20;;;2.10;;
11222;SDS011;5668;52.012;8.724;2022-07-24T07:08:53;5.28;;;2.17;;
11222;SDS011;5668;52.012;8.724;2022-07-24T07:11:20;2.45;;;2.25;;
11222;SDS011;5668;52.012;8.724;2022-07-24T07:13:48;2.38;;;2.08;;
11222;SDS011;5668;52.012;8.724;2022-07-24T07:16:15;4.20;;;2.35;;
11222;SDS011;5668;52.012;8.724;2022-07-24T07:18:42;4.35;;;2.35;;
11222;SDS011;5668;52.012;8.724;2022-07-24T07:21:11;3.53;;;2.55;;
11222;SDS011;5668;52.012;8.724;2022-07-24T07:23:38;3.55;;;2.60;;
11222;SDS011;5668;52.012;8.724;2022-07-24T07:26:05;2.85;;;2.50;;
11222;SDS011;5668;52.012;8.724;2022-07-24T07:28:33;2.70;;;2.50;;
11222;SDS011;5668;52.012;8.724;2022-07-24T07:31:00;3.25;;;2.38;;
11222;SDS011;5668;52.012;8.724;2022-07-24T07:33:27;3.22;;;2.80;;
11222;SDS011;5668;52.012;8.724;2022-07-24T07:35:55;2.85;;;2.65;;
11222;SDS011;5668;52.012;8.724;2022-07-24T07:38:23;4.03;;;2.80;;
11222;SDS011;5668;52.012;8.724;2022-07-24T07:40:51;2.58;;;2.38;;
11222;SDS011;5668;52.012;8.724;2022-07-24T07:43:18;3.03;;;2.55;;
11222;SDS011;5668;52.012;8.724;2022-07-24T07:45:45;5.18;;;2.90;;
11222;SDS011;5668;52.012;8.724;2022-07-24T07:48:12;4.53;;;2.67;;
11222;SDS011;5668;52.012;8.724;2022-07-24T07:50:40;3.15;;;2.75;;
11222;SDS011;5668;52.012;8.724;2022-07-24T07:53:07;3.90;;;3.47;;
11222;SDS011;5668;52.012;8.724;2022-07-24T07:55:36;4.00;;;3.38;;
11222;SDS011;5668;52.012;8.724;2022-07-24T07:58:03;3.30;;;3.00;;
11222;SDS011;5668;52.012;8.724;2022-07-24T08:00:31;3.97;;;3.25;;
11222;SDS011;5668;52.012;8.724;2022-07-24T08:02:59;5.90;;;3.03;;
11222;SDS011;5668;52.012;8.724;2022-07-24T08:05:27;3.40;;;3.10;;
11222;SDS011;5668;52.012;8.724;2022-07-24T08:07:55;3.10;;;2.80;;
11222;SDS011;5668;52.012;8.724;2022-07-24T08:10:22;3.40;;;3.10;;
11222;SDS011;5668;52.012;8.724;2022-07-24T08:12:51;3.60;;;3.30;;
11222;SDS011;5668;52.012;8.724;2022-07-24T08:15:18;3.38;;;3.00;;
11222;SDS011;5668;52.012;8.724;2022-07-24T08:17:50;4.97;;;3.40;;
11222;SDS011;5668;52.012;8.724;2022-07-24T08:20:18;3.70;;;3.15;;
11222;SDS011;5668;52.012;8.724;2022-07-24T08:22:46;3.92;;;3.00;;
11222;SDS011;5668;52.012;8.724;2022-07-24T08:25:13;4.30;;;3.08;;
11222;SDS011;5668;52.012;8.724;2022-07-24T08:27:41;3.10;;;2.83;;
11222;SDS011;5668;52.012;8.724;2022-07-24T08:30:10;3.38;;;3.08;;
11222;SDS011;5668;52.012;8.724;2022-07-24T08:32:37;3.83;;;3.42;;
11222;SDS011;5668;52.012;8.724;2022-07-24T08:35:05;4.10;;;3.17;;
11222;SDS011;5668;52.012;8.724;2022-07-24T08:37:34;5.35;;;3.28;;
11222;SDS011;5668;52.012;8.724;2022-07-24T08:40:02;3.70;;;3.33;;
11222;SDS011;5668;52.012;8.724;2022-07-24T08:42:31;3.22;;;3.00;;
11222;SDS011;5668;52.012;8.724;2022-07-24T08:44:58;3.00;;;2.80;;
11222;SDS011;5668;52.012;8.724;2022-07-24T08:47:27;4.03;;;3.28;;
11222;SDS011;5668;52.012;8.724;2022-07-24T08:49:57;3.97;;;3.17;;
11222;SDS011;5668;52.012;8.724;2022-07-24T08:52:25;5.07;;;3.42;;
11222;SDS011;5668;52.012;8.724;2022-07-24T08:54:53;3.70;;;3.40;;
11222;SDS011;5668;52.012;8.724;2022-07-24T08:57:21;3.80;;;3.50;;
11222;SDS011;5668;52.012;8.724;2022-07-24T08:59:48;3.47;;;2.88;;
11222;SDS011;5668;52.012;8.724;2022-07-24T09:02:16;4.22;;;3.30;;
11222;SDS011;5668;52.012;8.724;2022-07-24T09:04:45;3.83;;;3.13;;
11222;SDS011;5668;52.012;8.724;2022-07-24T09:07:14;4.15;;;2.97;;
11222;SDS011;5668;52.012;8.724;2022-07-24T09:09:43;3.30;;;3.00;;
11222;SDS011;5668;52.012;8.724;2022-07-24T09:12:22;3.10;;;2.80;;
11222;SDS011;5668;52.012;8.724;2022-07-24T09:14:50;3.42;;;3.13;;
11222;SDS011;5668;52.012;8.724;2022-07-24T09:17:19;3.40;;;3.10;;
11222;SDS011;5668;52.012;8.724;2022-07-24T09:19:49;4.05;;;3.25;;
11222;SDS011;5668;52.012;8.724;2022-07-24T09:22:31;3.97;;;3.15;;
11222;SDS011;5668;52.012;8.724;2022-07-24T09:25:04;4.85;;;3.00;;
11222;SDS011;5668;52.012;8.724;2022-07-24T09:27:34;3.38;;;3.17;;
11222;SDS011;5668;52.012;8.724;2022-07-24T09:30:02;3.92;;;3.10;;
11222;SDS011;5668;52.012;8.724;2022-07-24T09:32:32;4.78;;;3.10;;
11222;SDS011;5668;52.012;8.724;2022-07-24T09:35:00;4.47;;;3.35;;
11222;SDS011;5668;52.012;8.724;2022-07-24T09:37:28;3.25;;;2.95;;
11222;SDS011;5668;52.012;8.724;2022-07-24T09:40:05;4.25;;;3.70;;
11222;SDS011;5668;52.012;8.724;2022-07-24T09:42:36;3.50;;;3.20;;
11222;SDS011;5668;52.012;8.724;2022-07-24T09:45:08;3.92;;;3.63;;
11222;SDS011;5668;52.012;8.724;2022-07-24T09:47:37;3.97;;;3.40;;
11222;SDS011;5668;52.012;8.724;2022-07-24T09:50:13;3.88;;;3.42;;
11222;SDS011;5668;52.012;8.724;2022-07-24T09:52:43;3.50;;;3.20;;
11222;SDS011;5668;52.012;8.724;2022-07-24T09:55:21;3.78;;;3.30;;
11222;SDS011;5668;52.012;8.724;2022-07-24T09:57:50;3.90;;;3.25;;
11222;SDS011;5668;52.012;8.724;2022-07-24T10:00:18;4.65;;;3.25;;
11222;SDS011;5668;52.012;8.724;2022-07-24T10:02:46;3.88;;;3.42;;
11222;SDS011;5668;52.012;8.724;2022-07-24T10:05:16;3.65;;;3.35;;
11222;SDS011;5668;52.012;8.724;2022-07-24T10:07:44;3.35;;;3.15;;
11222;SDS011;5668;52.012;8.724;2022-07-24T10:10:14;3.55;;;3.25;;
11222;SDS011;5668;52.012;8.724;2022-07-24T10:12:44;3.95;;;3.65;;
11222;SDS011;5668;52.012;8.724;2022-07-24T10:15:12;3.88;;;3.58;;
11222;SDS011;5668;52.012;8.724;2022-07-24T10:18:00;3.97;;;3.67;;
11222;SDS011;5668;52.012;8.724;2022-07-24T10:20:42;4.15;;;3.75;;
11222;SDS011;5668;52.012;8.724;2022-07-24T10:23:19;4.70;;;3.85;;
11222;SDS011;5668;52.012;8.724;2022-07-24T10:25:52;4.20;;;3.85;;
11222;SDS011;5668;52.012;8.724;2022-07-24T10:28:32;4.25;;;3.85;;
11222;SDS011;5668;52.012;8.724;2022-07-24T10:31:04;4.68;;;3.42;;
11222;SDS011;5668;52.012;8.724;2022-07-24T10:33:32;4.68;;;3.80;;
11222;SDS011;5668;52.012;8.724;2022-07-24T10:36:03;5.55;;;3.45;;
11222;SDS011;5668;52.012;8.724;2022-07-24T10:38:40;4.22;;;3.83;;
11222;SDS011;5668;52.012;8.724;2022-07-24T10:41:13;3.55;;;3.25;;
11222;SDS011;5668;52.012;8.724;2022-07-24T10:46:59;5.22;;;3.88;;
11222;SDS011;5668;52.012;8.724;2022-07-24T10:49:39;3.90;;;3.60;;
11222;SDS011;5668;52.012;8.724;2022-07-24T10:52:14;4.55;;;3.92;;
11222;SDS011;5668;52.012;8.724;2022-07-24T10:54:49;3.80;;;3.47;;
11222;SDS011;5668;52.012;8.724;2022-07-24T10:57:53;4.18;;;3.78;;
11222;SDS011;5668;52.012;8.724;2022-07-24T11:00:23;3.72;;;3.40;;
11222;SDS011;5668;52.012;8.724;2022-07-24T11:02:54;5.15;;;4.65;;
11222;SDS011;5668;52.012;8.724;2022-07-24T11:05:27;3.97;;;3.67;;
11222;SDS011;5668;52.012;8.724;2022-07-24T11:08:15;5.35;;;3.83;;
11222;SDS011;5668;52.012;8.724;2022-07-24T11:10:56;3.88;;;3.47;;
11222;SDS011;5668;52.012;8.724;2022-07-24T11:13:42;4.75;;;3.75;;
11222;SDS011;5668;52.012;8.724;2022-07-24T11:16:16;5.40;;;3.70;;
11222;SDS011;5668;52.012;8.724;2022-07-24T11:21:46;4.20;;;3.47;;
11222;SDS011;5668;52.012;8.724;2022-07-24T11:24:15;5.05;;;3.50;;
11222;SDS011;5668;52.012;8.724;2022-07-24T11:26:48;6.20;;;3.38;;
11222;SDS011;5668;52.012;8.724;2022-07-24T11:29:17;3.67;;;3.38;;
11222;SDS011;5668;52.012;8.724;2022-07-24T11:31:47;3.78;;;3.47;;
11222;SDS011;5668;52.012;8.724;2022-07-24T11:34:16;3.83;;;3.53;;
11222;SDS011;5668;52.012;8.724;2022-07-24T11:36:44;3.70;;;3.40;;
11222;SDS011;5668;52.012;8.724;2022-07-24T11:39:16;3.95;;;3.53;;
11222;SDS011;5668;52.012;8.724;2022-07-24T11:41:44;3.78;;;3.42;;
11222;SDS011;5668;52.012;8.724;2022-07-24T11:44:13;4.32;;;3.05;;
11222;SDS011;5668;52.012;8.724;2022-07-24T11:46:47;3.47;;;3.28;;
11222;SDS011;5668;52.012;8.724;2022-07-24T11:49:14;3.83;;;3.38;;
11222;SDS011;5668;52.012;8.724;2022-07-24T11:51:42;4.15;;;3.85;;
11222;SDS011;5668;52.012;8.724;2022-07-24T11:54:10;4.93;;;3.45;;
11222;SDS011;5668;52.012;8.724;2022-07-24T11:56:41;4.53;;;3.45;;
11222;SDS011;5668;52.012;8.724;2022-07-24T11:59:20;4.32;;;4.03;;
11222;SDS011;5668;52.012;8.724;2022-07-24T12:01:48;4.22;;;3.85;;
11222;SDS011;5668;52.012;8.724;2022-07-24T12:04:18;3.70;;;3.40;;
11222;SDS011;5668;52.012;8.724;2022-07-24T12:06:46;4.05;;;3.45;;
11222;SDS011;5668;52.012;8.724;2022-07-24T12:09:14;3.63;;;3.33;;
11222;SDS011;5668;52.012;8.724;2022-07-24T12:11:43;3.95;;;3.65;;
11222;SDS011;5668;52.012;8.724;2022-07-24T12:14:14;3.50;;;3.20;;
11222;SDS011;5668;52.012;8.724;2022-07-24T12:16:42;4.38;;;3.53;;
11222;SDS011;5668;52.012;8.724;2022-07-24T12:19:10;3.92;;;3.63;;
11222;SDS011;5668;52.012;8.724;2022-07-24T12:21:39;4.15;;;3.60;;
11222;SDS011;5668;52.012;8.724;2022-07-24T12:24:07;3.80;;;3.40;;
11222;SDS011;5668;52.012;8.724;2022-07-24T12:26:42;3.65;;;3.35;;
11222;SDS011;5668;52.012;8.724;2022-07-24T12:29:16;4.10;;;3.80;;
11222;SDS011;5668;52.012;8.724;2022-07-24T12:31:43;4.00;;;3.30;;
11222;SDS011;5668;52.012;8.724;2022-07-24T12:34:11;5.35;;;3.20;;
11222;SDS011;5668;52.012;8.724;2022-07-24T12:36:38;3.70;;;3.40;;
11222;SDS011;5668;52.012;8.724;2022-07-24T12:39:06;4.15;;;3.80;;
11222;SDS011;5668;52.012;8.724;2022-07-24T12:41:41;3.72;;;3.42;;
11222;SDS011;5668;52.012;8.724;2022-07-24T12:44:12;4.07;;;3.33;;
11222;SDS011;5668;52.012;8.724;2022-07-24T12:46:40;3.90;;;3.58;;
11222;SDS011;5668;52.012;8.724;2022-07-24T12:49:10;3.88;;;3.10;;
11222;SDS011;5668;52.012;8.724;2022-07-24T12:54:21;3.90;;;3.60;;
11222;SDS011;5668;52.012;8.724;2022-07-24T12:56:52;3.90;;;3.60;;
11222;SDS011;5668;52.012;8.724;2022-07-24T12:59:21;3.75;;;3.28;;
11222;SDS011;5668;52.012;8.724;2022-07-24T13:01:50;3.85;;;3.08;;
11222;SDS011;5668;52.012;8.724;2022-07-24T13:04:19;3.85;;;3.13;;
11222;SDS011;5668;52.012;8.724;2022-07-24T13:06:48;3.17;;;2.88;;
11222;SDS011;5668;52.012;8.724;2022-07-24T13:09:17;3.08;;;2.88;;
11222;SDS011;5668;52.012;8.724;2022-07-24T13:11:46;3.58;;;3.28;;
11222;SDS011;5668;52.012;8.724;2022-07-24T13:14:16;3.67;;;3.38;;
11222;SDS011;5668;52.012;8.724;2022-07-24T13:16:46;3.47;;;3.17;;
11222;SDS011;5668;52.012;8.724;2022-07-24T13:19:14;4.88;;;2.90;;
11222;SDS011;5668;52.012;8.724;2022-07-24T13:21:43;3.33;;;3.03;;
11222;SDS011;5668;52.012;8.724;2022-07-24T13:24:11;3.42;;;3.20;;
11222;SDS011;5668;52.012;8.724;2022-07-24T13:26:41;3.30;;;3.00;;
11222;SDS011;5668;52.012;8.724;2022-07-24T13:29:10;3.47;;;3.20;;
11222;SDS011;5668;52.012;8.724;2022-07-24T13:31:41;3.17;;;2.88;;
11222;SDS011;5668;52.012;8.724;2022-07-24T13:34:09;3.20;;;2.90;;
11222;SDS011;5668;52.012;8.724;2022-07-24T13:36:36;3.25;;;2.95;;
11222;SDS011;5668;52.012;8.724;2022-07-24T13:39:03;3.28;;;2.90;;
11222;SDS011;5668;52.012;8.724;2022-07-24T13:41:31;3.17;;;2.53;;
11222;SDS011;5668;52.012;8.724;2022-07-24T13:43:59;3.67;;;2.78;;
11222;SDS011;5668;52.012;8.724;2022-07-24T13:46:28;2.92;;;2.63;;
11222;SDS011;5668;52.012;8.724;2022-07-24T13:48:58;3.33;;;3.03;;
11222;SDS011;5668;52.012;8.724;2022-07-24T13:51:26;2.92;;;2.72;;
11222;SDS011;5668;52.012;8.724;2022-07-24T13:53:54;3.00;;;2.80;;
11222;SDS011;5668;52.012;8.724;2022-07-24T13:56:21;3.50;;;3.20;;
11222;SDS011;5668;52.012;8.724;2022-07-24T13:58:49;3.90;;;3.50;;
11222;SDS011;5668;52.012;8.724;2022-07-24T14:01:16;4.18;;;3.40;;
11222;SDS011;5668;52.012;8.724;2022-07-24T14:03:44;3.35;;;3.08;;
11222;SDS011;5668;52.012;8.724;2022-07-24T14:06:13;3.13;;;2.90;;
11222;SDS011;5668;52.012;8.724;2022-07-24T14:08:41;2.90;;;2.70;;
11222;SDS011;5668;52.012;8.724;2022-07-24T14:11:08;3.10;;;2.75;;
11222;SDS011;5668;52.012;8.724;2022-07-24T14:13:36;3.35;;;3.00;;
11222;SDS011;5668;52.012;8.724;2022-07-24T14:16:04;3.13;;;2.92;;
11222;SDS011;5668;52.012;8.724;2022-07-24T14:18:31;3.47;;;3.17;;
11222;SDS011;5668;52.012;8.724;2022-07-24T14:20:59;3.50;;;3.20;;
11222;SDS011;5668;52.012;8.724;2022-07-24T14:23:27;3.35;;;3.05;;
11222;SDS011;5668;52.012;8.724;2022-07-24T14:25:55;2.90;;;2.70;;
11222;SDS011;5668;52.012;8.724;2022-07-24T14:28:22;2.88;;;2.67;;
11222;SDS011;5668;52.012;8.724;2022-07-24T14:30:49;3.28;;;3.08;;
11222;SDS011;5668;52.012;8.724;2022-07-24T14:33:17;3.47;;;3.17;;
11222;SDS011;5668;52.012;8.724;2022-07-24T14:35:44;3.40;;;3.00;;
11222;SDS011;5668;52.012;8.724;2022-07-24T14:38:11;4.10;;;2.88;;
11222;SDS011;5668;52.012;8.724;2022-07-24T14:40:40;2.95;;;2.70;;
11222;SDS011;5668;52.012;8.724;2022-07-24T14:43:07;3.20;;;3.00;;
11222;SDS011;5668;52.012;8.724;2022-07-24T14:45:34;3.00;;;2.80;;
11222;SDS011;5668;52.012;8.724;2022-07-24T14:48:02;3.78;;;2.80;;
11222;SDS011;5668;52.012;8.724;2022-07-24T14:50:30;3.15;;;2.85;;
11222;SDS011;5668;52.012;8.724;2022-07-24T14:52:57;2.72;;;2.53;;
11222;SDS011;5668;52.012;8.724;2022-07-24T14:55:25;5.22;;;3.28;;
11222;SDS011;5668;52.012;8.724;2022-07-24T14:57:54;3.30;;;3.00;;
11222;SDS011;5668;52.012;8.724;2022-07-24T15:00:22;3.45;;;3.15;;
11222;SDS011;5668;52.012;8.724;2022-07-24T15:02:50;4.10;;;2.80;;
11222;SDS011;5668;52.012;8.724;2022-07-24T15:05:17;3.35;;;3.05;;
11222;SDS011;5668;52.012;8.724;2022-07-24T15:07:44;3.55;;;2.80;;
11222;SDS011;5668;52.012;8.724;2022-07-24T15:10:12;2.60;;;2.40;;
11222;SDS011;5668;52.012;8.724;2022-07-24T15:12:40;3.17;;;2.88;;
11222;SDS011;5668;52.012;8.724;2022-07-24T15:15:09;3.95;;;2.92;;
11222;SDS011;5668;52.012;8.724;2022-07-24T15:17:37;2.95;;;2.75;;
11222;SDS011;5668;52.012;8.724;2022-07-24T15:20:05;3.30;;;3.00;;